createdAt,value
2019-05-26T00:04:23.870Z,7.37
2019-05-26T00:09:08.841Z,7.40
2019-05-26T00:13:53.756Z,6.73
2019-05-26T00:18:38.691Z,7.77
2019-05-26T00:23:24.003Z,8.23
2019-05-26T00:28:08.629Z,7.30
2019-05-26T00:32:53.712Z,7.90
2019-05-26T00:37:50.336Z,7.50
2019-05-26T00:42:37.631Z,7.87
2019-05-26T00:47:22.419Z,7.53
2019-05-26T00:52:07.220Z,9.10
2019-05-26T00:56:52.348Z,9.00
2019-05-26T01:01:37.391Z,8.77
2019-05-26T01:06:22.314Z,8.43
2019-05-26T01:11:06.994Z,8.77
2019-05-26T01:15:52.167Z,9.27
2019-05-26T01:20:37.416Z,8.10
2019-05-26T01:25:22.434Z,8.13
2019-05-26T01:30:07.565Z,8.00
2019-05-26T01:34:52.812Z,8.87
2019-05-26T01:39:37.798Z,7.60
2019-05-26T01:44:22.663Z,7.60
2019-05-26T01:49:07.600Z,7.67
2019-05-26T01:53:52.437Z,7.00
2019-05-26T01:58:37.384Z,7.70
2019-05-26T02:03:22.070Z,7.70
2019-05-26T02:08:06.720Z,7.17
2019-05-26T02:12:51.658Z,7.43
2019-05-26T02:17:36.521Z,8.60
2019-05-26T02:22:21.431Z,8.33
2019-05-26T02:27:06.204Z,7.60
2019-05-26T02:31:50.838Z,8.50
2019-05-26T02:36:35.726Z,8.67
2019-05-26T02:41:20.672Z,9.30
2019-05-26T02:46:08.076Z,8.07
2019-05-26T02:50:52.911Z,8.60
2019-05-26T02:55:37.965Z,8.67
2019-05-26T03:00:43.373Z,8.00
2019-05-26T03:05:28.363Z,8.73
2019-05-26T03:10:14.683Z,8.80
2019-05-26T03:15:01.082Z,8.27
2019-05-26T03:19:49.236Z,9.03
2019-05-26T03:24:34.161Z,7.87
2019-05-26T03:29:19.236Z,8.03
2019-05-26T03:34:05.035Z,7.80
2019-05-26T03:38:49.621Z,7.90
2019-05-26T03:43:34.522Z,8.23
2019-05-26T03:48:19.221Z,7.90
2019-05-26T03:53:03.878Z,6.97
2019-05-26T03:57:51.745Z,7.50
2019-05-26T04:02:36.484Z,8.20
2019-05-26T04:07:21.328Z,7.00
2019-05-26T04:12:05.825Z,7.10
2019-05-26T04:16:50.802Z,7.50
2019-05-26T04:21:35.554Z,7.20
2019-05-26T04:26:20.213Z,6.90
2019-05-26T04:31:04.959Z,7.00
2019-05-26T04:35:49.639Z,6.90
2019-05-26T04:40:34.597Z,7.30
2019-05-26T04:45:19.661Z,6.17
2019-05-26T04:50:05.903Z,6.30
2019-05-26T04:54:50.749Z,6.20
2019-05-26T04:59:35.670Z,6.47
2019-05-26T05:04:20.799Z,5.80
2019-05-26T05:09:08.835Z,6.90
2019-05-26T05:13:53.651Z,6.47
2019-05-26T05:18:38.500Z,6.80
2019-05-26T05:23:23.395Z,6.47
2019-05-26T05:28:08.191Z,6.10
2019-05-26T05:32:52.899Z,6.87
2019-05-26T05:37:41.558Z,5.43
2019-05-26T05:42:26.484Z,5.43
2019-05-26T05:47:11.101Z,5.70
2019-05-26T05:51:58.460Z,6.17
2019-05-26T05:56:43.349Z,6.37
2019-05-26T06:01:28.323Z,6.33
2019-05-26T06:06:15.920Z,5.30
2019-05-26T06:11:15.273Z,6.67
2019-05-26T06:15:47.157Z,6.17
2019-05-26T06:20:40.325Z,5.67
2019-05-26T06:25:25.446Z,4.73
2019-05-26T06:30:13.940Z,4.00
2019-05-26T06:34:58.957Z,4.67
2019-05-26T06:39:43.659Z,4.53
2019-05-26T06:44:28.482Z,5.73
2019-05-26T06:49:15.722Z,3.90
2019-05-26T06:54:00.794Z,4.20
2019-05-26T06:58:46.350Z,4.33
2019-05-26T07:03:31.179Z,3.93
2019-05-26T07:08:15.859Z,4.43
2019-05-26T07:13:00.997Z,3.00
2019-05-26T07:17:45.994Z,3.10
2019-05-26T07:22:32.652Z,2.80
2019-05-26T07:27:19.441Z,2.90
2019-05-26T07:32:04.255Z,3.13
2019-05-26T07:36:49.274Z,3.30
2019-05-26T07:41:33.976Z,3.00
2019-05-26T07:46:18.842Z,3.13
2019-05-26T07:51:03.398Z,3.43
2019-05-26T07:55:48.606Z,2.73
2019-05-26T08:00:33.506Z,2.67
2019-05-26T08:05:21.030Z,2.43
2019-05-26T08:10:06.347Z,3.70
2019-05-26T08:14:51.311Z,3.13
2019-05-26T08:19:36.357Z,2.90
2019-05-26T08:24:25.826Z,3.50
2019-05-26T08:29:10.456Z,3.40
2019-05-26T08:33:55.133Z,3.00
2019-05-26T08:38:41.360Z,3.80
2019-05-26T08:43:30.859Z,3.77
2019-05-26T08:48:15.505Z,3.30
2019-05-26T08:53:00.740Z,3.43
2019-05-26T08:57:45.705Z,3.03
2019-05-26T09:02:42.553Z,2.73
2019-05-26T09:07:30.285Z,2.90
2019-05-26T09:12:17.118Z,2.90
2019-05-26T09:17:08.748Z,2.43
2019-05-26T09:21:54.400Z,2.63
2019-05-26T09:26:40.355Z,2.30
2019-05-26T09:31:25.902Z,2.37
2019-05-26T09:36:10.590Z,2.43
2019-05-26T09:40:56.989Z,2.60
2019-05-26T09:45:45.089Z,1.97
2019-05-26T09:50:34.230Z,2.30
2019-05-26T09:55:19.040Z,2.63
2019-05-26T10:00:08.505Z,2.63
2019-05-26T10:04:57.645Z,2.60
2019-05-26T10:09:45.311Z,2.83
2019-05-26T10:14:30.266Z,3.30
2019-05-26T10:19:14.796Z,2.50
2019-05-26T10:23:59.545Z,2.70
2019-05-26T10:28:44.350Z,2.20
2019-05-26T10:33:32.799Z,2.40
2019-05-26T10:38:22.291Z,2.47
2019-05-26T10:43:13.456Z,2.33
2019-05-26T10:48:01.653Z,2.50
2019-05-26T10:52:46.502Z,2.13
2019-05-26T10:57:34.488Z,2.50
2019-05-26T11:02:32.869Z,2.27
2019-05-26T11:07:21.630Z,1.80
2019-05-26T11:12:12.879Z,1.90
2019-05-26T11:16:57.696Z,2.40
2019-05-26T11:21:43.887Z,2.47
2019-05-26T11:26:28.779Z,2.40
2019-05-26T11:31:16.245Z,2.27
2019-05-26T11:36:23.294Z,2.73
2019-05-26T11:41:08.144Z,2.07
2019-05-26T11:45:53.361Z,2.53
2019-05-26T11:50:49.292Z,2.00
2019-05-26T11:55:34.134Z,2.23
2019-05-26T12:00:20.002Z,2.30
2019-05-26T12:05:07.638Z,1.87
2019-05-26T12:09:56.760Z,2.10
2019-05-26T12:14:40.772Z,2.13
2019-05-26T12:19:30.962Z,2.10
2019-05-26T12:24:43.219Z,2.33
2019-05-26T12:29:30.701Z,2.03
2019-05-26T12:34:21.294Z,2.17
2019-05-26T12:39:08.540Z,1.73
2019-05-26T12:43:56.599Z,1.93
2019-05-26T12:48:41.610Z,2.50
2019-05-26T12:53:35.499Z,2.10
2019-05-26T12:58:21.116Z,2.07
2019-05-26T13:03:09.038Z,1.83
2019-05-26T13:08:02.952Z,2.03
2019-05-26T13:12:48.167Z,1.60
2019-05-26T13:17:34.612Z,1.90
2019-05-26T13:22:19.850Z,1.50
2019-05-26T13:27:04.744Z,1.80
2019-05-26T13:31:51.382Z,1.80
2019-05-26T13:36:39.252Z,1.77
2019-05-26T13:41:24.781Z,1.53
2019-05-26T13:46:09.695Z,1.80
2019-05-26T13:50:54.891Z,1.80
2019-05-26T13:55:39.838Z,1.60
2019-05-26T14:00:25.104Z,1.80
2019-05-26T14:05:17.738Z,1.60
2019-05-26T14:10:03.548Z,1.80
2019-05-26T14:14:48.350Z,1.87
2019-05-26T14:19:34.795Z,1.50
2019-05-26T14:24:19.837Z,1.70
2019-05-26T14:29:05.079Z,1.43
2019-05-26T14:33:49.919Z,1.73
2019-05-26T14:38:43.090Z,1.60
2019-05-26T14:43:22.360Z,1.50
2019-05-26T14:48:07.610Z,1.40
2019-05-26T14:52:52.507Z,1.20
2019-05-26T14:57:37.661Z,1.40
2019-05-26T15:02:22.516Z,1.40
2019-05-26T15:07:07.442Z,1.13
2019-05-26T15:11:52.688Z,1.47
2019-05-26T15:16:38.538Z,1.67
2019-05-26T15:21:23.679Z,1.60
2019-05-26T15:26:08.444Z,1.37
2019-05-26T15:30:53.253Z,1.20
2019-05-26T15:35:38.124Z,1.80
2019-05-26T15:40:23.315Z,1.30
2019-05-26T15:45:08.219Z,1.43
2019-05-26T15:49:52.822Z,1.33
2019-05-26T15:54:37.765Z,1.20
2019-05-26T15:59:22.385Z,1.40
2019-05-26T16:04:07.112Z,1.40
2019-05-26T16:08:51.764Z,1.20
2019-05-26T16:13:36.903Z,1.40
2019-05-26T16:18:21.508Z,1.30
2019-05-26T16:23:08.811Z,1.00
2019-05-26T16:27:52.585Z,1.07
2019-05-26T16:32:39.606Z,1.40
2019-05-26T16:37:24.222Z,1.27
2019-05-26T16:42:08.779Z,1.43
2019-05-26T16:46:57.078Z,1.23
2019-05-26T16:51:41.867Z,1.20
2019-05-26T16:56:26.654Z,1.10
2019-05-26T17:01:11.439Z,1.07
2019-05-26T17:06:07.627Z,0.90
2019-05-26T17:10:43.244Z,1.00
2019-05-26T17:15:28.317Z,1.05
2019-05-26T17:20:13.350Z,0.90
2019-05-26T17:25:00.022Z,1.23
2019-05-26T17:29:45.099Z,1.45
2019-05-26T17:34:29.889Z,1.17
2019-05-26T17:39:14.903Z,1.10
2019-05-26T17:44:00.129Z,1.10
2019-05-26T17:48:45.333Z,1.20
2019-05-26T17:53:30.441Z,1.27
2019-05-26T17:58:15.224Z,1.30
2019-05-26T18:03:00.124Z,1.20
2019-05-26T18:07:46.354Z,1.40
2019-05-26T18:12:31.346Z,1.30
2019-05-26T18:17:16.347Z,1.33
2019-05-26T18:22:01.409Z,1.43
2019-05-26T18:26:47.104Z,1.60
2019-05-26T18:31:31.923Z,1.30
2019-05-26T18:36:16.660Z,1.57
2019-05-26T18:41:01.427Z,1.50
2019-05-26T18:45:46.390Z,1.33
2019-05-26T18:50:31.202Z,1.63
2019-05-26T18:55:16.152Z,1.50
2019-05-26T19:00:00.811Z,1.40
2019-05-26T19:04:45.828Z,1.43
2019-05-26T19:09:32.151Z,1.40
2019-05-26T19:14:16.816Z,1.57
2019-05-26T19:19:04.327Z,1.50
2019-05-26T19:23:52.267Z,1.60
2019-05-26T19:28:37.000Z,1.53
2019-05-26T19:33:23.035Z,1.77
2019-05-26T19:38:08.005Z,1.70
2019-05-26T19:42:55.398Z,1.80
2019-05-26T19:47:41.799Z,1.77
2019-05-26T19:52:26.714Z,1.77
2019-05-26T19:57:11.513Z,1.70
2019-05-26T20:01:56.547Z,1.77
2019-05-26T20:06:43.898Z,1.80
2019-05-26T20:11:28.942Z,1.87
2019-05-26T20:16:19.124Z,1.90
2019-05-26T20:21:03.575Z,1.80
2019-05-26T20:25:48.435Z,1.73
2019-05-26T20:30:33.245Z,1.70
2019-05-26T20:35:18.338Z,1.67
2019-05-26T20:40:02.980Z,1.83
2019-05-26T20:44:47.547Z,1.90
2019-05-26T20:49:44.887Z,1.90
2019-05-26T20:54:19.074Z,2.10
2019-05-26T20:59:03.934Z,2.03
2019-05-26T21:03:48.717Z,2.10
2019-05-26T21:08:33.683Z,2.10
2019-05-26T21:13:18.335Z,2.10
2019-05-26T21:18:03.069Z,2.17
2019-05-26T21:22:47.630Z,2.50
2019-05-26T21:27:32.443Z,2.70
2019-05-26T21:32:17.215Z,2.10
2019-05-26T21:37:02.985Z,2.60
2019-05-26T21:41:47.498Z,2.50
2019-05-26T21:46:32.483Z,2.80
2019-05-26T21:51:17.309Z,2.60
2019-05-26T21:56:01.914Z,3.00
2019-05-26T22:00:49.485Z,2.97
2019-05-26T22:05:34.368Z,2.33
2019-05-26T22:10:21.638Z,2.50
2019-05-26T22:15:06.535Z,2.63
2019-05-26T22:19:51.813Z,2.33
2019-05-26T22:24:36.501Z,2.40
2019-05-26T22:29:21.525Z,2.50
2019-05-26T22:34:06.185Z,2.70
2019-05-26T22:38:52.803Z,2.67
2019-05-26T22:43:37.240Z,2.30
2019-05-26T22:48:21.872Z,2.20
2019-05-26T22:53:06.695Z,2.60
2019-05-26T22:57:51.309Z,2.50
2019-05-26T23:02:36.115Z,2.83
2019-05-26T23:07:21.126Z,2.30
2019-05-26T23:12:05.888Z,2.50
2019-05-26T23:16:52.938Z,2.70
2019-05-26T23:21:37.654Z,2.50
2019-05-26T23:26:22.269Z,2.53
2019-05-26T23:31:06.874Z,2.70
2019-05-26T23:35:51.572Z,2.40
2019-05-26T23:40:36.301Z,2.53
2019-05-26T23:45:21.109Z,2.70
2019-05-26T23:50:05.871Z,2.50
2019-05-26T23:54:50.619Z,2.53
2019-05-26T23:59:35.376Z,2.93
